sensor_id;sensor_type;location;lat;lon;timestamp;P1;durP1;ratioP1;P2;durP2;ratioP2
15818;SDS011;8010;53.986;12.106;2023-01-09T00:01:31;2.77;;;2.23;;
15818;SDS011;8010;53.986;12.106;2023-01-09T00:04:00;4.50;;;2.67;;
15818;SDS011;8010;53.986;12.106;2023-01-09T00:06:25;2.57;;;2.30;;
15818;SDS011;8010;53.986;12.106;2023-01-09T00:08:51;4.57;;;2.73;;
15818;SDS011;8010;53.986;12.106;2023-01-09T00:11:17;3.17;;;2.53;;
15818;SDS011;8010;53.986;12.106;2023-01-09T00:13:42;2.80;;;2.50;;
15818;SDS011;8010;53.986;12.106;2023-01-09T00:16:08;3.93;;;2.23;;
15818;SDS011;8010;53.986;12.106;2023-01-09T00:18:34;3.80;;;2.40;;
15818;SDS011;8010;53.986;12.106;2023-01-09T00:21:01;2.80;;;2.27;;
15818;SDS011;8010;53.986;12.106;2023-01-09T00:23:28;5.33;;;2.20;;
15818;SDS011;8010;53.986;12.106;2023-01-09T00:26:00;3.00;;;2.20;;
15818;SDS011;8010;53.986;12.106;2023-01-09T00:28:30;3.33;;;2.63;;
15818;SDS011;8010;53.986;12.106;2023-01-09T00:30:57;2.77;;;2.30;;
15818;SDS011;8010;53.986;12.106;2023-01-09T00:33:24;2.50;;;2.20;;
15818;SDS011;8010;53.986;12.106;2023-01-09T00:35:53;4.77;;;2.87;;
15818;SDS011;8010;53.986;12.106;2023-01-09T00:38:18;3.13;;;2.50;;
15818;SDS011;8010;53.986;12.106;2023-01-09T00:40:44;2.73;;;2.40;;
15818;SDS011;8010;53.986;12.106;2023-01-09T00:43:09;2.90;;;2.30;;
15818;SDS011;8010;53.986;12.106;2023-01-09T00:45:35;2.60;;;2.20;;
15818;SDS011;8010;53.986;12.106;2023-01-09T00:48:02;4.03;;;2.20;;
15818;SDS011;8010;53.986;12.106;2023-01-09T00:50:33;5.53;;;2.53;;
15818;SDS011;8010;53.986;12.106;2023-01-09T00:53:00;3.17;;;2.27;;
15818;SDS011;8010;53.986;12.106;2023-01-09T00:55:35;3.43;;;2.70;;
15818;SDS011;8010;53.986;12.106;2023-01-09T00:58:01;3.33;;;2.37;;
15818;SDS011;8010;53.986;12.106;2023-01-09T01:00:27;2.90;;;2.30;;
15818;SDS011;8010;53.986;12.106;2023-01-09T01:02:53;4.53;;;3.13;;
15818;SDS011;8010;53.986;12.106;2023-01-09T01:05:18;3.77;;;2.70;;
15818;SDS011;8010;53.986;12.106;2023-01-09T01:08:08;5.67;;;2.77;;
15818;SDS011;8010;53.986;12.106;2023-01-09T01:10:38;3.93;;;2.53;;
15818;SDS011;8010;53.986;12.106;2023-01-09T01:13:03;4.90;;;2.87;;
15818;SDS011;8010;53.986;12.106;2023-01-09T01:15:29;2.80;;;2.50;;
15818;SDS011;8010;53.986;12.106;2023-01-09T01:17:55;6.13;;;3.17;;
15818;SDS011;8010;53.986;12.106;2023-01-09T01:20:21;4.33;;;2.83;;
15818;SDS011;8010;53.986;12.106;2023-01-09T01:22:46;4.97;;;3.10;;
15818;SDS011;8010;53.986;12.106;2023-01-09T01:25:13;3.87;;;2.90;;
15818;SDS011;8010;53.986;12.106;2023-01-09T01:27:40;3.90;;;2.90;;
15818;SDS011;8010;53.986;12.106;2023-01-09T01:30:07;4.27;;;3.07;;
15818;SDS011;8010;53.986;12.106;2023-01-09T01:32:34;4.00;;;2.90;;
15818;SDS011;8010;53.986;12.106;2023-01-09T01:34:59;6.67;;;3.27;;
15818;SDS011;8010;53.986;12.106;2023-01-09T01:37:25;4.27;;;2.73;;
15818;SDS011;8010;53.986;12.106;2023-01-09T01:39:51;4.23;;;2.90;;
15818;SDS011;8010;53.986;12.106;2023-01-09T01:42:17;4.90;;;2.80;;
15818;SDS011;8010;53.986;12.106;2023-01-09T01:53:06;4.77;;;3.03;;
15818;SDS011;8010;53.986;12.106;2023-01-09T01:55:39;4.63;;;3.07;;
15818;SDS011;8010;53.986;12.106;2023-01-09T01:58:09;4.13;;;3.07;;
15818;SDS011;8010;53.986;12.106;2023-01-09T02:00:39;3.83;;;2.73;;
15818;SDS011;8010;53.986;12.106;2023-01-09T02:03:08;4.67;;;2.90;;
15818;SDS011;8010;53.986;12.106;2023-01-09T02:05:34;4.23;;;3.20;;
15818;SDS011;8010;53.986;12.106;2023-01-09T02:08:01;6.47;;;3.17;;
15818;SDS011;8010;53.986;12.106;2023-01-09T02:10:27;3.50;;;2.90;;
15818;SDS011;8010;53.986;12.106;2023-01-09T02:12:54;4.03;;;3.00;;
15818;SDS011;8010;53.986;12.106;2023-01-09T02:15:20;3.73;;;2.73;;
15818;SDS011;8010;53.986;12.106;2023-01-09T02:20:52;4.83;;;3.17;;
15818;SDS011;8010;53.986;12.106;2023-01-09T02:23:47;4.27;;;2.93;;
15818;SDS011;8010;53.986;12.106;2023-01-09T02:26:47;5.33;;;3.43;;
15818;SDS011;8010;53.986;12.106;2023-01-09T02:29:29;4.80;;;3.27;;
15818;SDS011;8010;53.986;12.106;2023-01-09T02:40:55;4.70;;;3.10;;
15818;SDS011;8010;53.986;12.106;2023-01-09T02:43:31;5.07;;;3.77;;
15818;SDS011;8010;53.986;12.106;2023-01-09T02:45:57;4.13;;;3.30;;
15818;SDS011;8010;53.986;12.106;2023-01-09T02:48:22;5.47;;;3.60;;
15818;SDS011;8010;53.986;12.106;2023-01-09T02:50:58;5.80;;;3.67;;
15818;SDS011;8010;53.986;12.106;2023-01-09T02:59:10;6.00;;;3.50;;
15818;SDS011;8010;53.986;12.106;2023-01-09T03:02:26;4.87;;;3.37;;
15818;SDS011;8010;53.986;12.106;2023-01-09T03:05:18;5.30;;;3.57;;
15818;SDS011;8010;53.986;12.106;2023-01-09T03:08:00;4.80;;;3.40;;
15818;SDS011;8010;53.986;12.106;2023-01-09T03:10:31;4.87;;;3.63;;
15818;SDS011;8010;53.986;12.106;2023-01-09T03:13:04;4.13;;;3.30;;
15818;SDS011;8010;53.986;12.106;2023-01-09T03:15:33;4.40;;;2.90;;
15818;SDS011;8010;53.986;12.106;2023-01-09T03:18:00;6.03;;;3.60;;
15818;SDS011;8010;53.986;12.106;2023-01-09T03:20:29;5.67;;;3.27;;
15818;SDS011;8010;53.986;12.106;2023-01-09T03:23:00;7.17;;;3.53;;
15818;SDS011;8010;53.986;12.106;2023-01-09T03:25:28;4.93;;;3.37;;
15818;SDS011;8010;53.986;12.106;2023-01-09T03:28:05;5.93;;;3.70;;
15818;SDS011;8010;53.986;12.106;2023-01-09T03:30:43;6.07;;;3.83;;
15818;SDS011;8010;53.986;12.106;2023-01-09T03:33:08;6.37;;;4.13;;
15818;SDS011;8010;53.986;12.106;2023-01-09T03:35:34;5.00;;;3.67;;
15818;SDS011;8010;53.986;12.106;2023-01-09T03:37:59;5.70;;;3.70;;
15818;SDS011;8010;53.986;12.106;2023-01-09T03:40:25;4.87;;;3.33;;
15818;SDS011;8010;53.986;12.106;2023-01-09T03:42:51;4.77;;;3.67;;
15818;SDS011;8010;53.986;12.106;2023-01-09T03:45:16;6.33;;;3.70;;
15818;SDS011;8010;53.986;12.106;2023-01-09T03:47:42;4.70;;;3.83;;
15818;SDS011;8010;53.986;12.106;2023-01-09T03:50:07;7.43;;;4.80;;
15818;SDS011;8010;53.986;12.106;2023-01-09T03:52:33;4.73;;;3.43;;
15818;SDS011;8010;53.986;12.106;2023-01-09T03:55:00;5.67;;;4.00;;
15818;SDS011;8010;53.986;12.106;2023-01-09T03:57:25;4.97;;;3.60;;
15818;SDS011;8010;53.986;12.106;2023-01-09T03:59:51;5.23;;;3.93;;
15818;SDS011;8010;53.986;12.106;2023-01-09T04:02:16;5.93;;;3.93;;
15818;SDS011;8010;53.986;12.106;2023-01-09T04:04:42;5.83;;;4.13;;
15818;SDS011;8010;53.986;12.106;2023-01-09T04:07:07;6.00;;;4.10;;
15818;SDS011;8010;53.986;12.106;2023-01-09T04:09:33;6.43;;;4.00;;
15818;SDS011;8010;53.986;12.106;2023-01-09T04:11:58;5.83;;;3.77;;
15818;SDS011;8010;53.986;12.106;2023-01-09T04:14:24;5.13;;;3.73;;
15818;SDS011;8010;53.986;12.106;2023-01-09T04:16:49;7.90;;;4.47;;
15818;SDS011;8010;53.986;12.106;2023-01-09T04:19:15;7.50;;;3.80;;
15818;SDS011;8010;53.986;12.106;2023-01-09T04:21:40;6.57;;;3.93;;
15818;SDS011;8010;53.986;12.106;2023-01-09T04:24:06;6.10;;;4.23;;
15818;SDS011;8010;53.986;12.106;2023-01-09T04:26:32;6.87;;;4.50;;
15818;SDS011;8010;53.986;12.106;2023-01-09T04:28:57;5.70;;;4.50;;
15818;SDS011;8010;53.986;12.106;2023-01-09T04:31:24;7.03;;;4.63;;
15818;SDS011;8010;53.986;12.106;2023-01-09T04:33:50;6.63;;;4.37;;
15818;SDS011;8010;53.986;12.106;2023-01-09T04:36:15;5.40;;;4.07;;
15818;SDS011;8010;53.986;12.106;2023-01-09T04:38:41;5.57;;;4.10;;
15818;SDS011;8010;53.986;12.106;2023-01-09T04:41:06;6.30;;;3.87;;
15818;SDS011;8010;53.986;12.106;2023-01-09T04:43:32;6.87;;;3.80;;
15818;SDS011;8010;53.986;12.106;2023-01-09T04:45:57;8.23;;;4.83;;
15818;SDS011;8010;53.986;12.106;2023-01-09T04:48:23;6.17;;;4.43;;
15818;SDS011;8010;53.986;12.106;2023-01-09T04:50:48;6.47;;;4.70;;
15818;SDS011;8010;53.986;12.106;2023-01-09T04:53:14;7.53;;;4.50;;
15818;SDS011;8010;53.986;12.106;2023-01-09T04:55:39;8.67;;;4.73;;
15818;SDS011;8010;53.986;12.106;2023-01-09T04:58:06;6.67;;;4.83;;
15818;SDS011;8010;53.986;12.106;2023-01-09T05:00:32;9.60;;;5.20;;
15818;SDS011;8010;53.986;12.106;2023-01-09T05:02:58;5.77;;;4.43;;
15818;SDS011;8010;53.986;12.106;2023-01-09T05:05:24;5.67;;;4.10;;
15818;SDS011;8010;53.986;12.106;2023-01-09T05:07:49;5.87;;;4.03;;
15818;SDS011;8010;53.986;12.106;2023-01-09T05:10:15;8.00;;;4.60;;
15818;SDS011;8010;53.986;12.106;2023-01-09T05:12:40;5.97;;;4.13;;
15818;SDS011;8010;53.986;12.106;2023-01-09T05:15:06;8.43;;;4.43;;
15818;SDS011;8010;53.986;12.106;2023-01-09T05:17:32;6.20;;;4.60;;
15818;SDS011;8010;53.986;12.106;2023-01-09T05:19:58;7.10;;;4.83;;
15818;SDS011;8010;53.986;12.106;2023-01-09T05:22:27;5.43;;;4.53;;
15818;SDS011;8010;53.986;12.106;2023-01-09T05:24:52;6.53;;;4.37;;
15818;SDS011;8010;53.986;12.106;2023-01-09T05:27:18;5.77;;;4.50;;
15818;SDS011;8010;53.986;12.106;2023-01-09T05:29:43;5.87;;;4.20;;
15818;SDS011;8010;53.986;12.106;2023-01-09T05:32:09;5.87;;;4.50;;
15818;SDS011;8010;53.986;12.106;2023-01-09T05:34:34;6.53;;;4.53;;
15818;SDS011;8010;53.986;12.106;2023-01-09T05:37:00;7.60;;;5.13;;
15818;SDS011;8010;53.986;12.106;2023-01-09T05:39:25;7.53;;;4.90;;
15818;SDS011;8010;53.986;12.106;2023-01-09T05:41:51;8.37;;;5.27;;
15818;SDS011;8010;53.986;12.106;2023-01-09T05:44:17;7.50;;;5.00;;
15818;SDS011;8010;53.986;12.106;2023-01-09T05:46:42;7.47;;;4.77;;
15818;SDS011;8010;53.986;12.106;2023-01-09T05:49:08;7.53;;;4.50;;
15818;SDS011;8010;53.986;12.106;2023-01-09T05:51:33;6.67;;;4.40;;
15818;SDS011;8010;53.986;12.106;2023-01-09T05:53:59;5.53;;;4.00;;
15818;SDS011;8010;53.986;12.106;2023-01-09T05:56:26;8.00;;;4.43;;
15818;SDS011;8010;53.986;12.106;2023-01-09T05:58:51;6.47;;;4.73;;
15818;SDS011;8010;53.986;12.106;2023-01-09T06:01:17;7.33;;;4.93;;
15818;SDS011;8010;53.986;12.106;2023-01-09T06:03:42;7.67;;;5.50;;
15818;SDS011;8010;53.986;12.106;2023-01-09T06:06:08;6.80;;;4.93;;
15818;SDS011;8010;53.986;12.106;2023-01-09T06:08:33;8.97;;;4.97;;
15818;SDS011;8010;53.986;12.106;2023-01-09T06:10:59;8.60;;;5.43;;
15818;SDS011;8010;53.986;12.106;2023-01-09T06:13:24;9.73;;;5.13;;
15818;SDS011;8010;53.986;12.106;2023-01-09T06:15:50;7.60;;;4.97;;
15818;SDS011;8010;53.986;12.106;2023-01-09T06:18:15;8.03;;;5.17;;
15818;SDS011;8010;53.986;12.106;2023-01-09T06:20:42;7.70;;;5.20;;
15818;SDS011;8010;53.986;12.106;2023-01-09T06:23:08;8.47;;;4.90;;
15818;SDS011;8010;53.986;12.106;2023-01-09T06:25:34;6.83;;;5.00;;
15818;SDS011;8010;53.986;12.106;2023-01-09T06:27:59;7.20;;;4.67;;
15818;SDS011;8010;53.986;12.106;2023-01-09T06:30:25;7.20;;;5.10;;
15818;SDS011;8010;53.986;12.106;2023-01-09T06:32:50;11.00;;;7.63;;
15818;SDS011;8010;53.986;12.106;2023-01-09T06:35:16;9.37;;;6.07;;
15818;SDS011;8010;53.986;12.106;2023-01-09T06:37:46;7.87;;;5.67;;
15818;SDS011;8010;53.986;12.106;2023-01-09T06:40:12;9.30;;;6.17;;
15818;SDS011;8010;53.986;12.106;2023-01-09T06:42:41;13.30;;;7.87;;
15818;SDS011;8010;53.986;12.106;2023-01-09T06:45:08;10.10;;;8.47;;
15818;SDS011;8010;53.986;12.106;2023-01-09T06:47:33;9.57;;;6.67;;
15818;SDS011;8010;53.986;12.106;2023-01-09T06:49:59;7.67;;;5.37;;
15818;SDS011;8010;53.986;12.106;2023-01-09T06:52:24;11.70;;;9.13;;
15818;SDS011;8010;53.986;12.106;2023-01-09T06:54:50;11.10;;;8.77;;
15818;SDS011;8010;53.986;12.106;2023-01-09T06:57:15;8.07;;;5.93;;
15818;SDS011;8010;53.986;12.106;2023-01-09T06:59:41;9.33;;;6.27;;
15818;SDS011;8010;53.986;12.106;2023-01-09T07:02:10;7.17;;;5.60;;
15818;SDS011;8010;53.986;12.106;2023-01-09T07:04:41;8.80;;;6.27;;
15818;SDS011;8010;53.986;12.106;2023-01-09T07:07:07;7.13;;;5.33;;
15818;SDS011;8010;53.986;12.106;2023-01-09T07:09:32;10.17;;;6.17;;
15818;SDS011;8010;53.986;12.106;2023-01-09T07:11:58;9.77;;;6.43;;
15818;SDS011;8010;53.986;12.106;2023-01-09T07:14:23;11.60;;;5.93;;
15818;SDS011;8010;53.986;12.106;2023-01-09T07:16:49;8.87;;;5.83;;
15818;SDS011;8010;53.986;12.106;2023-01-09T07:19:14;8.70;;;5.57;;
15818;SDS011;8010;53.986;12.106;2023-01-09T07:21:40;9.03;;;5.50;;
15818;SDS011;8010;53.986;12.106;2023-01-09T07:24:05;7.63;;;5.50;;
15818;SDS011;8010;53.986;12.106;2023-01-09T07:26:31;9.27;;;5.50;;
15818;SDS011;8010;53.986;12.106;2023-01-09T07:28:56;10.27;;;5.87;;
15818;SDS011;8010;53.986;12.106;2023-01-09T07:31:22;10.40;;;6.70;;
15818;SDS011;8010;53.986;12.106;2023-01-09T07:33:47;9.47;;;6.43;;
15818;SDS011;8010;53.986;12.106;2023-01-09T07:36:13;8.53;;;6.23;;
15818;SDS011;8010;53.986;12.106;2023-01-09T07:38:39;8.73;;;5.80;;
15818;SDS011;8010;53.986;12.106;2023-01-09T07:41:04;8.57;;;5.83;;
15818;SDS011;8010;53.986;12.106;2023-01-09T07:43:30;9.57;;;5.63;;
15818;SDS011;8010;53.986;12.106;2023-01-09T07:45:55;9.90;;;6.03;;
15818;SDS011;8010;53.986;12.106;2023-01-09T07:48:22;9.43;;;5.80;;
15818;SDS011;8010;53.986;12.106;2023-01-09T07:50:47;8.10;;;5.77;;
15818;SDS011;8010;53.986;12.106;2023-01-09T07:53:13;8.60;;;5.93;;
15818;SDS011;8010;53.986;12.106;2023-01-09T07:55:40;9.57;;;6.47;;
15818;SDS011;8010;53.986;12.106;2023-01-09T07:58:06;12.23;;;6.27;;
15818;SDS011;8010;53.986;12.106;2023-01-09T08:00:32;8.80;;;6.23;;
15818;SDS011;8010;53.986;12.106;2023-01-09T08:02:57;10.23;;;6.80;;
15818;SDS011;8010;53.986;12.106;2023-01-09T08:05:23;9.90;;;6.07;;
15818;SDS011;8010;53.986;12.106;2023-01-09T08:07:48;9.70;;;6.57;;
15818;SDS011;8010;53.986;12.106;2023-01-09T08:10:15;11.27;;;6.97;;
15818;SDS011;8010;53.986;12.106;2023-01-09T08:12:43;8.10;;;6.00;;
15818;SDS011;8010;53.986;12.106;2023-01-09T08:15:10;9.90;;;6.30;;
15818;SDS011;8010;53.986;12.106;2023-01-09T08:17:35;9.90;;;6.57;;
15818;SDS011;8010;53.986;12.106;2023-01-09T08:20:03;9.17;;;6.43;;
15818;SDS011;8010;53.986;12.106;2023-01-09T08:22:29;10.53;;;6.73;;
15818;SDS011;8010;53.986;12.106;2023-01-09T08:24:54;8.03;;;6.13;;
15818;SDS011;8010;53.986;12.106;2023-01-09T08:27:20;8.60;;;7.07;;
15818;SDS011;8010;53.986;12.106;2023-01-09T08:29:45;9.67;;;6.80;;
15818;SDS011;8010;53.986;12.106;2023-01-09T08:32:11;11.37;;;7.27;;
15818;SDS011;8010;53.986;12.106;2023-01-09T08:34:36;10.47;;;6.83;;
15818;SDS011;8010;53.986;12.106;2023-01-09T08:37:02;8.63;;;6.80;;
15818;SDS011;8010;53.986;12.106;2023-01-09T08:39:27;9.53;;;6.57;;
15818;SDS011;8010;53.986;12.106;2023-01-09T08:41:53;10.17;;;6.73;;
15818;SDS011;8010;53.986;12.106;2023-01-09T08:44:37;9.20;;;5.87;;
15818;SDS011;8010;53.986;12.106;2023-01-09T08:47:21;8.80;;;6.23;;
15818;SDS011;8010;53.986;12.106;2023-01-09T08:49:48;9.73;;;6.70;;
15818;SDS011;8010;53.986;12.106;2023-01-09T08:52:14;9.03;;;5.50;;
15818;SDS011;8010;53.986;12.106;2023-01-09T08:54:39;9.53;;;6.20;;
15818;SDS011;8010;53.986;12.106;2023-01-09T08:57:05;9.47;;;5.80;;
15818;SDS011;8010;53.986;12.106;2023-01-09T08:59:32;7.87;;;5.70;;
15818;SDS011;8010;53.986;12.106;2023-01-09T09:01:57;9.60;;;5.90;;
15818;SDS011;8010;53.986;12.106;2023-01-09T09:04:23;8.57;;;4.93;;
15818;SDS011;8010;53.986;12.106;2023-01-09T09:06:49;8.70;;;5.53;;
15818;SDS011;8010;53.986;12.106;2023-01-09T09:09:14;7.17;;;4.67;;
15818;SDS011;8010;53.986;12.106;2023-01-09T09:11:40;7.53;;;4.77;;
15818;SDS011;8010;53.986;12.106;2023-01-09T09:14:06;5.10;;;4.30;;
15818;SDS011;8010;53.986;12.106;2023-01-09T09:16:50;5.50;;;3.77;;
15818;SDS011;8010;53.986;12.106;2023-01-09T09:19:16;5.90;;;4.13;;
15818;SDS011;8010;53.986;12.106;2023-01-09T09:21:41;6.10;;;4.10;;
15818;SDS011;8010;53.986;12.106;2023-01-09T09:24:07;5.80;;;4.10;;
15818;SDS011;8010;53.986;12.106;2023-01-09T09:26:32;5.20;;;3.50;;
15818;SDS011;8010;53.986;12.106;2023-01-09T09:28:58;5.27;;;4.00;;
15818;SDS011;8010;53.986;12.106;2023-01-09T09:31:23;6.37;;;4.27;;
15818;SDS011;8010;53.986;12.106;2023-01-09T09:33:49;6.33;;;3.87;;
15818;SDS011;8010;53.986;12.106;2023-01-09T09:36:14;5.33;;;3.80;;
15818;SDS011;8010;53.986;12.106;2023-01-09T09:38:40;6.73;;;4.43;;
15818;SDS011;8010;53.986;12.106;2023-01-09T09:41:18;5.77;;;4.17;;
15818;SDS011;8010;53.986;12.106;2023-01-09T09:47:24;5.63;;;4.00;;
15818;SDS011;8010;53.986;12.106;2023-01-09T09:58:18;7.43;;;4.93;;
15818;SDS011;8010;53.986;12.106;2023-01-09T10:00:50;6.07;;;4.10;;
15818;SDS011;8010;53.986;12.106;2023-01-09T10:03:27;8.30;;;4.63;;
15818;SDS011;8010;53.986;12.106;2023-01-09T10:08:56;8.07;;;4.33;;
15818;SDS011;8010;53.986;12.106;2023-01-09T10:11:57;6.47;;;4.23;;
15818;SDS011;8010;53.986;12.106;2023-01-09T10:14:29;6.43;;;4.20;;
15818;SDS011;8010;53.986;12.106;2023-01-09T10:19:47;8.00;;;4.97;;
15818;SDS011;8010;53.986;12.106;2023-01-09T10:22:32;8.87;;;4.00;;
15818;SDS011;8010;53.986;12.106;2023-01-09T10:33:29;6.67;;;5.10;;
15818;SDS011;8010;53.986;12.106;2023-01-09T10:38:49;4.73;;;3.13;;
15818;SDS011;8010;53.986;12.106;2023-01-09T10:41:30;6.80;;;3.47;;
15818;SDS011;8010;53.986;12.106;2023-01-09T10:44:23;5.50;;;4.23;;
15818;SDS011;8010;53.986;12.106;2023-01-09T10:46:54;4.87;;;3.70;;
15818;SDS011;8010;53.986;12.106;2023-01-09T10:49:22;6.53;;;4.63;;
15818;SDS011;8010;53.986;12.106;2023-01-09T10:51:53;5.97;;;4.13;;
15818;SDS011;8010;53.986;12.106;2023-01-09T10:54:36;6.17;;;3.77;;
15818;SDS011;8010;53.986;12.106;2023-01-09T10:57:17;4.93;;;3.70;;
15818;SDS011;8010;53.986;12.106;2023-01-09T11:00:03;5.73;;;3.97;;
15818;SDS011;8010;53.986;12.106;2023-01-09T11:02:30;6.73;;;4.03;;
15818;SDS011;8010;53.986;12.106;2023-01-09T11:04:58;5.67;;;3.60;;
15818;SDS011;8010;53.986;12.106;2023-01-09T11:07:25;4.67;;;3.60;;
15818;SDS011;8010;53.986;12.106;2023-01-09T11:12:25;3.97;;;2.80;;
15818;SDS011;8010;53.986;12.106;2023-01-09T11:14:52;5.93;;;3.03;;
15818;SDS011;8010;53.986;12.106;2023-01-09T11:17:25;4.60;;;3.27;;
15818;SDS011;8010;53.986;12.106;2023-01-09T11:20:04;4.27;;;3.20;;
15818;SDS011;8010;53.986;12.106;2023-01-09T11:22:40;3.93;;;3.10;;
15818;SDS011;8010;53.986;12.106;2023-01-09T11:25:11;5.47;;;3.43;;
15818;SDS011;8010;53.986;12.106;2023-01-09T11:27:41;5.33;;;3.53;;
15818;SDS011;8010;53.986;12.106;2023-01-09T11:30:20;3.87;;;3.00;;
15818;SDS011;8010;53.986;12.106;2023-01-09T11:32:50;4.93;;;3.33;;
15818;SDS011;8010;53.986;12.106;2023-01-09T11:35:17;3.23;;;2.77;;
15818;SDS011;8010;53.986;12.106;2023-01-09T11:37:49;4.43;;;3.10;;
15818;SDS011;8010;53.986;12.106;2023-01-09T11:40:26;4.33;;;3.00;;
15818;SDS011;8010;53.986;12.106;2023-01-09T11:43:03;4.83;;;3.20;;
15818;SDS011;8010;53.986;12.106;2023-01-09T11:45:43;4.73;;;3.10;;
15818;SDS011;8010;53.986;12.106;2023-01-09T11:48:16;4.97;;;3.20;;
15818;SDS011;8010;53.986;12.106;2023-01-09T11:50:51;4.67;;;3.43;;
15818;SDS011;8010;53.986;12.106;2023-01-09T11:53:19;4.90;;;3.13;;
15818;SDS011;8010;53.986;12.106;2023-01-09T11:55:45;3.80;;;2.93;;
15818;SDS011;8010;53.986;12.106;2023-01-09T11:58:15;3.20;;;2.87;;
15818;SDS011;8010;53.986;12.106;2023-01-09T12:00:46;5.07;;;3.47;;
15818;SDS011;8010;53.986;12.106;2023-01-09T12:05:54;3.73;;;2.80;;
15818;SDS011;8010;53.986;12.106;2023-01-09T12:11:18;4.87;;;2.90;;
15818;SDS011;8010;53.986;12.106;2023-01-09T12:19:31;3.53;;;2.80;;
15818;SDS011;8010;53.986;12.106;2023-01-09T12:22:17;2.97;;;2.50;;
15818;SDS011;8010;53.986;12.106;2023-01-09T12:27:48;3.00;;;2.20;;
15818;SDS011;8010;53.986;12.106;2023-01-09T12:30:46;3.67;;;2.30;;
15818;SDS011;8010;53.986;12.106;2023-01-09T12:36:24;2.90;;;2.00;;
15818;SDS011;8010;53.986;12.106;2023-01-09T12:41:47;1.80;;;1.43;;
15818;SDS011;8010;53.986;12.106;2023-01-09T12:44:24;3.73;;;1.93;;
15818;SDS011;8010;53.986;12.106;2023-01-09T12:52:40;3.83;;;1.60;;
15818;SDS011;8010;53.986;12.106;2023-01-09T12:55:13;4.27;;;2.10;;
15818;SDS011;8010;53.986;12.106;2023-01-09T12:57:43;2.63;;;1.73;;
15818;SDS011;8010;53.986;12.106;2023-01-09T13:00:15;3.53;;;1.90;;
15818;SDS011;8010;53.986;12.106;2023-01-09T13:05:25;4.10;;;1.90;;
15818;SDS011;8010;53.986;12.106;2023-01-09T13:08:01;4.03;;;1.77;;
15818;SDS011;8010;53.986;12.106;2023-01-09T13:10:31;4.40;;;2.07;;
15818;SDS011;8010;53.986;12.106;2023-01-09T13:13:03;3.53;;;2.00;;
15818;SDS011;8010;53.986;12.106;2023-01-09T13:15:35;4.43;;;2.37;;
15818;SDS011;8010;53.986;12.106;2023-01-09T13:21:04;7.00;;;3.30;;
15818;SDS011;8010;53.986;12.106;2023-01-09T13:25:57;3.83;;;1.93;;
15818;SDS011;8010;53.986;12.106;2023-01-09T13:28:30;2.63;;;1.97;;
15818;SDS011;8010;53.986;12.106;2023-01-09T13:31:13;4.93;;;2.07;;
15818;SDS011;8010;53.986;12.106;2023-01-09T13:33:52;5.07;;;2.00;;
15818;SDS011;8010;53.986;12.106;2023-01-09T13:36:32;8.10;;;2.33;;
15818;SDS011;8010;53.986;12.106;2023-01-09T13:39:03;6.03;;;1.93;;
15818;SDS011;8010;53.986;12.106;2023-01-09T13:41:30;3.40;;;1.87;;
15818;SDS011;8010;53.986;12.106;2023-01-09T13:46:46;5.57;;;1.80;;
15818;SDS011;8010;53.986;12.106;2023-01-09T13:52:02;7.30;;;1.83;;
15818;SDS011;8010;53.986;12.106;2023-01-09T13:59:44;3.33;;;1.60;;
15818;SDS011;8010;53.986;12.106;2023-01-09T14:04:59;6.20;;;2.00;;
15818;SDS011;8010;53.986;12.106;2023-01-09T14:07:38;6.97;;;2.03;;
15818;SDS011;8010;53.986;12.106;2023-01-09T14:10:25;4.27;;;2.00;;
15818;SDS011;8010;53.986;12.106;2023-01-09T14:12:53;4.10;;;1.83;;
15818;SDS011;8010;53.986;12.106;2023-01-09T14:15:40;7.00;;;1.63;;
15818;SDS011;8010;53.986;12.106;2023-01-09T14:18:14;4.70;;;1.80;;
15818;SDS011;8010;53.986;12.106;2023-01-09T14:20:44;7.40;;;1.80;;
15818;SDS011;8010;53.986;12.106;2023-01-09T14:23:23;3.93;;;1.67;;
15818;SDS011;8010;53.986;12.106;2023-01-09T14:25:52;4.77;;;1.87;;
15818;SDS011;8010;53.986;12.106;2023-01-09T14:28:20;5.33;;;1.90;;
15818;SDS011;8010;53.986;12.106;2023-01-09T14:35:53;7.47;;;1.90;;
15818;SDS011;8010;53.986;12.106;2023-01-09T14:38:31;4.53;;;1.70;;
15818;SDS011;8010;53.986;12.106;2023-01-09T14:46:10;7.47;;;2.00;;
15818;SDS011;8010;53.986;12.106;2023-01-09T14:48:39;7.43;;;2.07;;
15818;SDS011;8010;53.986;12.106;2023-01-09T14:51:14;2.30;;;1.70;;
15818;SDS011;8010;53.986;12.106;2023-01-09T14:53:41;4.27;;;1.80;;
15818;SDS011;8010;53.986;12.106;2023-01-09T14:56:20;7.67;;;2.20;;
15818;SDS011;8010;53.986;12.106;2023-01-09T14:58:58;6.33;;;1.60;;
15818;SDS011;8010;53.986;12.106;2023-01-09T15:01:27;6.30;;;2.00;;
15818;SDS011;8010;53.986;12.106;2023-01-09T15:04:01;5.40;;;1.57;;
15818;SDS011;8010;53.986;12.106;2023-01-09T15:06:30;8.13;;;1.70;;
15818;SDS011;8010;53.986;12.106;2023-01-09T15:09:06;6.10;;;1.90;;
15818;SDS011;8010;53.986;12.106;2023-01-09T15:11:37;4.47;;;2.20;;
15818;SDS011;8010;53.986;12.106;2023-01-09T15:14:04;5.53;;;1.97;;
15818;SDS011;8010;53.986;12.106;2023-01-09T15:16:30;3.77;;;2.20;;
15818;SDS011;8010;53.986;12.106;2023-01-09T15:18:58;5.90;;;2.63;;
15818;SDS011;8010;53.986;12.106;2023-01-09T15:21:27;6.83;;;2.30;;
15818;SDS011;8010;53.986;12.106;2023-01-09T15:24:10;6.90;;;2.10;;
15818;SDS011;8010;53.986;12.106;2023-01-09T15:26:50;4.93;;;1.90;;
15818;SDS011;8010;53.986;12.106;2023-01-09T15:29:20;2.93;;;1.70;;
15818;SDS011;8010;53.986;12.106;2023-01-09T15:31:47;4.63;;;2.13;;
15818;SDS011;8010;53.986;12.106;2023-01-09T15:34:19;8.83;;;1.67;;
15818;SDS011;8010;53.986;12.106;2023-01-09T15:36:45;6.40;;;2.20;;
15818;SDS011;8010;53.986;12.106;2023-01-09T15:39:17;3.93;;;2.03;;
15818;SDS011;8010;53.986;12.106;2023-01-09T15:41:55;4.60;;;2.20;;
15818;SDS011;8010;53.986;12.106;2023-01-09T15:44:41;3.70;;;1.87;;
15818;SDS011;8010;53.986;12.106;2023-01-09T15:47:16;7.87;;;1.80;;
15818;SDS011;8010;53.986;12.106;2023-01-09T15:49:47;5.17;;;1.80;;
15818;SDS011;8010;53.986;12.106;2023-01-09T15:52:13;4.80;;;2.10;;
15818;SDS011;8010;53.986;12.106;2023-01-09T15:54:41;3.97;;;1.53;;
15818;SDS011;8010;53.986;12.106;2023-01-09T15:59:48;5.10;;;1.60;;
15818;SDS011;8010;53.986;12.106;2023-01-09T16:02:13;3.67;;;1.77;;
15818;SDS011;8010;53.986;12.106;2023-01-09T16:05:01;5.47;;;1.60;;
15818;SDS011;8010;53.986;12.106;2023-01-09T16:07:30;3.80;;;1.50;;
15818;SDS011;8010;53.986;12.106;2023-01-09T16:09:57;7.53;;;2.20;;
15818;SDS011;8010;53.986;12.106;2023-01-09T16:12:24;4.17;;;1.80;;
15818;SDS011;8010;53.986;12.106;2023-01-09T16:14:51;4.57;;;1.80;;
15818;SDS011;8010;53.986;12.106;2023-01-09T16:17:20;7.07;;;2.57;;
15818;SDS011;8010;53.986;12.106;2023-01-09T16:19:57;5.50;;;2.87;;
15818;SDS011;8010;53.986;12.106;2023-01-09T16:22:37;6.90;;;2.63;;
15818;SDS011;8010;53.986;12.106;2023-01-09T16:25:30;8.63;;;4.50;;
15818;SDS011;8010;53.986;12.106;2023-01-09T16:30:51;7.17;;;3.43;;
15818;SDS011;8010;53.986;12.106;2023-01-09T16:33:26;6.70;;;3.30;;
15818;SDS011;8010;53.986;12.106;2023-01-09T16:35:54;6.27;;;3.63;;
15818;SDS011;8010;53.986;12.106;2023-01-09T16:38:20;4.73;;;2.83;;
15818;SDS011;8010;53.986;12.106;2023-01-09T16:41:00;6.27;;;3.60;;
15818;SDS011;8010;53.986;12.106;2023-01-09T16:43:48;7.50;;;3.30;;
15818;SDS011;8010;53.986;12.106;2023-01-09T16:46:15;8.93;;;4.20;;
15818;SDS011;8010;53.986;12.106;2023-01-09T16:48:43;8.67;;;5.20;;
15818;SDS011;8010;53.986;12.106;2023-01-09T16:51:16;8.63;;;4.57;;
15818;SDS011;8010;53.986;12.106;2023-01-09T16:53:43;11.93;;;5.60;;
15818;SDS011;8010;53.986;12.106;2023-01-09T16:56:28;10.30;;;5.53;;
15818;SDS011;8010;53.986;12.106;2023-01-09T16:58:54;11.90;;;6.07;;
15818;SDS011;8010;53.986;12.106;2023-01-09T17:01:20;12.43;;;6.07;;
15818;SDS011;8010;53.986;12.106;2023-01-09T17:03:46;9.33;;;5.20;;